AirNav   Everest Fuels
 
 1499 users online  

8MN2 Aslesen Airport
Halstad, Minnesota, USA

GOING TO HALSTAD?


FAA INFORMATION EFFECTIVE 03 NOVEMBER 2022

Location

FAA Identifier: 8MN2
Lat/Long: 47-20-08.1100N 096-44-56.1600W
47-20.135167N 096-44.936000W
47.3355861,-96.7489333
(estimated)
Elevation: 879 ft. / 268 m (estimated)
From city: 3 miles E of HALSTAD, MN
Time zone: UTC -6 (UTC -5 during Daylight Saving Time)
Zip code: 56548

Airport Operations

Airport use: Private use. Permission required prior to landing
Activation date: 03/2019
Control tower: no
ARTCC: MINNEAPOLIS CENTER
FSS: PRINCETON FLIGHT SERVICE STATION
Attendance: 
Segmented circle: no

Nearby radio navigation aids

VOR radial/distance  VOR name  Freq  Var
FARr358/35.2FARGO VOR/DME116.2009E

Airport Services

Runway Information

Runway 18/36

Dimensions: 2505 x 22 ft. / 764 x 7 m
Surface: asphalt
RUNWAY 18  RUNWAY 36
Latitude: 47-20.338333N
Longitude: 096-44.936000W
Elevation: 879.0 ft.
Traffic pattern: leftleft
Touchdown point: yes, no lightsno, no lights

Airport Ownership and Management from official FAA records

Ownership: Privately-owned
Owner: ASLESEN COMPANY, LLC
2288 150TH STREET
HALSTAD, MN 56548
Phone 218-456-2465
Manager: ROB ASLESEN
2288 150TH STREET
HALSTAD, MN 56548
Phone 218-456-2465
EMAIL ADDRESS: ADMIN@AIRBORNECUSTOMSPRAYING.COM (ALL LOWER CASE)

Airport Operational Statistics

Aircraft based on the field: 4
Single engine airplanes: 1
Multi engine airplanes: 1
Helicopters: 1
Gliders airplanes: 1
    

Additional Remarks

OWNER DESIRES ARPT BE CHARTED.

Instrument Procedures

There are no published instrument procedures at 8MN2.

Some nearby airports with instrument procedures:

3H4 - Hillsboro Municipal Airport (13 nm W)
D00 - Norman County Ada/Twin Valley Airport (15 nm E)
KFAR - Hector International Airport (25 nm S)
KJKJ - Moorhead Municipal Airport/Florence Klingensmith Field (30 nm S)
KCKN - Crookston Municipal Airport - Kirkwood Field (31 nm N)
 
Loc | Ops | Rwys | IFR | FBO | Links
Com | Nav | Svcs | Stats | Notes
Aerial photo
No photo
 
Airport distance calculator
Flying to Aslesen Airport? Find the distance to fly.

From to 8MN2

Sunrise and sunset
Times for 29-Nov-2022
 Local
(UTC-6)
 Zulu
(UTC)
Morning civil twilight07:1713:17
Sunrise07:5213:52
Sunset16:3922:39
Evening civil twilight17:1423:14

Current date and time
Zulu (UTC)  29-Nov-2022 18:00:28
Local (UTC-6)  29-Nov-2022 12:00:28
 
METAR
KFAR 
24nm S 
291753Z 26014KT 10SM CLR M07/M12 A2971 RMK AO2 SLP078 T10671117 11067 21094 58012
KJKJ 
30nm S 
291755Z AUTO 27012KT 10SM CLR M07/M12 A2972 RMK AO2 TSNO
KCKN 
31nm N 
291755Z 25013KT 10SM M07/M12 A2966 RMK AO2
K3N8 
34nm E 
291735Z AUTO 25011KT 10SM CLR M08/M12 A2967 RMK AO2 T10851121
KGFK 
41nm NW 
291753Z 27017KT 10SM OVC025 M06/M11 A2963 RMK AO2 SLP049 4/003 933005 T10611111 11061 21100 58015
KFSE 
43nm E 
291755Z AUTO 24012KT 10SM CLR M09/M13 A2965 RMK AO2
KRDR 
46nm NW 
291655Z 24012KT 10SM BKN022 M07/M12 A2965 RMK AO2A CIG 020 RWY35 SLP061 T10701123 $
KDTL 
48nm SE 
291755Z AUTO 28012KT 10SM BKN013 M08/M13 A2967 RMK AO2
TAF
KFAR 
24nm S 
291123Z 2912/3012 24010KT P6SM BKN220 FM291600 26012KT P6SM BKN130 FM291900 29014KT P6SM BKN060 FM292100 29014KT P6SM OVC030 FM300900 30016G25KT P6SM BKN035
NOTAMs
Click for the latest NOTAMs
NOTAMs are issued by the DoD/FAA and will open in a separate window not controlled by AirNav.

 

 
 

Would you like to see your business listed on this page?

 If your business provides an interesting product or service to pilots, flight crews, aircraft, or users of the Aslesen Airport, you should consider listing it here.  To start the listing process, click on the button below
 
Add a business
 

Other Pages about Aslesen Airport

Update a link
 
Copyright © AirNav, LLC. All rights reserved. Privacy Policy  Contact